sensor_id;sensor_type;location;lat;lon;timestamp;pressure;altitude;pressure_sealevel;temperature;humidity
33191;BME280;19554;42.652;23.364;2023-05-20T00:01:57;94931.81;;;14.84;65.72
33191;BME280;19554;42.652;23.364;2023-05-20T00:04:22;94932.91;;;14.83;65.90
33191;BME280;19554;42.652;23.364;2023-05-20T00:06:48;94928.94;;;14.80;65.88
33191;BME280;19554;42.652;23.364;2023-05-20T00:09:13;94938.69;;;14.76;65.80
33191;BME280;19554;42.652;23.364;2023-05-20T00:11:39;94854.16;;;14.15;65.87
33191;BME280;19554;42.652;23.364;2023-05-20T00:14:04;94929.31;;;14.65;65.93
33191;BME280;19554;42.652;23.364;2023-05-20T00:16:30;94931.00;;;14.61;65.88
33191;BME280;19554;42.652;23.364;2023-05-20T00:18:55;94924.28;;;14.50;66.09
33191;BME280;19554;42.652;23.364;2023-05-20T00:21:21;94806.69;;;13.65;65.99
33191;BME280;19554;42.652;23.364;2023-05-20T00:23:47;94856.81;;;13.92;66.15
33191;BME280;19554;42.652;23.364;2023-05-20T00:26:12;94882.03;;;14.05;65.97
33191;BME280;19554;42.652;23.364;2023-05-20T00:28:38;94933.03;;;14.41;65.86
33191;BME280;19554;42.652;23.364;2023-05-20T00:31:03;94928.44;;;14.42;65.66
33191;BME280;19554;42.652;23.364;2023-05-20T00:33:29;94926.09;;;14.40;65.51
33191;BME280;19554;42.652;23.364;2023-05-20T00:35:54;94908.72;;;14.24;65.74
33191;BME280;19554;42.652;23.364;2023-05-20T00:38:20;94924.97;;;14.41;65.86
33191;BME280;19554;42.652;23.364;2023-05-20T00:40:45;94920.72;;;14.40;66.18
33191;BME280;19554;42.652;23.364;2023-05-20T00:43:10;94921.91;;;14.34;66.54
33191;BME280;19554;42.652;23.364;2023-05-20T00:45:36;94813.78;;;13.61;67.12
33191;BME280;19554;42.652;23.364;2023-05-20T00:48:02;94915.78;;;14.20;67.25
33191;BME280;19554;42.652;23.364;2023-05-20T00:50:28;94909.81;;;14.23;67.02
33191;BME280;19554;42.652;23.364;2023-05-20T00:52:54;94905.53;;;14.22;66.67
33191;BME280;19554;42.652;23.364;2023-05-20T00:55:20;94896.50;;;14.18;66.36
33191;BME280;19554;42.652;23.364;2023-05-20T00:57:47;94889.94;;;14.24;66.20
33191;BME280;19554;42.652;23.364;2023-05-20T01:00:13;94893.72;;;14.23;65.87
33191;BME280;19554;42.652;23.364;2023-05-20T01:02:38;94903.47;;;14.19;65.95
33191;BME280;19554;42.652;23.364;2023-05-20T01:05:04;94904.47;;;14.23;66.08
33191;BME280;19554;42.652;23.364;2023-05-20T01:07:30;94901.28;;;14.21;66.02
33191;BME280;19554;42.652;23.364;2023-05-20T01:09:56;94908.22;;;14.22;65.90
33191;BME280;19554;42.652;23.364;2023-05-20T01:12:30;94912.59;;;14.18;65.72
33191;BME280;19554;42.652;23.364;2023-05-20T01:15:10;94853.69;;;13.63;65.80
33191;BME280;19554;42.652;23.364;2023-05-20T01:17:39;94918.63;;;13.87;66.78
33191;BME280;19554;42.652;23.364;2023-05-20T01:20:07;94920.84;;;13.85;67.76
33191;BME280;19554;42.652;23.364;2023-05-20T01:22:48;94877.94;;;13.58;67.87
33191;BME280;19554;42.652;23.364;2023-05-20T01:25:14;94921.03;;;13.89;68.46
33191;BME280;19554;42.652;23.364;2023-05-20T01:27:40;94879.31;;;13.69;68.27
33191;BME280;19554;42.652;23.364;2023-05-20T01:30:07;94918.63;;;13.87;66.81
33191;BME280;19554;42.652;23.364;2023-05-20T01:32:38;94874.88;;;13.50;66.93
33191;BME280;19554;42.652;23.364;2023-05-20T01:35:05;94888.16;;;13.56;67.30
33191;BME280;19554;42.652;23.364;2023-05-20T01:37:31;94916.66;;;13.79;67.48
33191;BME280;19554;42.652;23.364;2023-05-20T01:39:58;94917.16;;;13.81;67.52
33191;BME280;19554;42.652;23.364;2023-05-20T01:42:25;94913.84;;;13.84;67.17
33191;BME280;19554;42.652;23.364;2023-05-20T01:44:52;94831.28;;;13.31;67.11
33191;BME280;19554;42.652;23.364;2023-05-20T01:47:17;94902.34;;;13.84;67.14
33191;BME280;19554;42.652;23.364;2023-05-20T01:49:43;94903.13;;;13.84;66.94
33191;BME280;19554;42.652;23.364;2023-05-20T01:52:10;94882.59;;;13.66;66.97
33191;BME280;19554;42.652;23.364;2023-05-20T01:54:36;94907.03;;;13.78;66.98
33191;BME280;19554;42.652;23.364;2023-05-20T01:57:01;94904.34;;;13.78;67.67
33191;BME280;19554;42.652;23.364;2023-05-20T01:59:27;94902.66;;;13.82;68.93
33191;BME280;19554;42.652;23.364;2023-05-20T02:01:52;94889.63;;;13.75;69.03
33191;BME280;19554;42.652;23.364;2023-05-20T02:04:18;94901.56;;;13.83;68.74
33191;BME280;19554;42.652;23.364;2023-05-20T02:06:44;94894.78;;;13.86;67.94
33191;BME280;19554;42.652;23.364;2023-05-20T02:09:10;94894.47;;;13.87;67.38
33191;BME280;19554;42.652;23.364;2023-05-20T02:11:35;94894.78;;;13.86;66.94
33191;BME280;19554;42.652;23.364;2023-05-20T02:14:01;94896.97;;;13.84;67.39
33191;BME280;19554;42.652;23.364;2023-05-20T02:16:26;94897.75;;;13.84;66.51
33191;BME280;19554;42.652;23.364;2023-05-20T02:18:51;94884.47;;;13.79;65.93
33191;BME280;19554;42.652;23.364;2023-05-20T02:21:17;94807.75;;;13.28;67.01
33191;BME280;19554;42.652;23.364;2023-05-20T02:23:42;94900.94;;;13.86;67.87
33191;BME280;19554;42.652;23.364;2023-05-20T02:26:08;94892.72;;;13.83;67.01
33191;BME280;19554;42.652;23.364;2023-05-20T02:28:33;94888.44;;;13.82;66.71
33191;BME280;19554;42.652;23.364;2023-05-20T02:30:58;94890.34;;;13.81;66.35
33191;BME280;19554;42.652;23.364;2023-05-20T02:33:24;94886.03;;;13.80;66.05
33191;BME280;19554;42.652;23.364;2023-05-20T02:35:52;94881.09;;;13.73;66.14
33191;BME280;19554;42.652;23.364;2023-05-20T02:38:17;94891.03;;;13.73;66.57
33191;BME280;19554;42.652;23.364;2023-05-20T02:40:43;94892.41;;;13.70;66.23
33191;BME280;19554;42.652;23.364;2023-05-20T02:43:09;94885.09;;;13.62;66.14
33191;BME280;19554;42.652;23.364;2023-05-20T02:45:34;94888.28;;;13.64;66.37
33191;BME280;19554;42.652;23.364;2023-05-20T02:48:00;94894.50;;;13.60;66.47
33191;BME280;19554;42.652;23.364;2023-05-20T02:50:25;94889.25;;;13.55;66.41
33191;BME280;19554;42.652;23.364;2023-05-20T02:52:50;94890.66;;;13.52;66.37
33191;BME280;19554;42.652;23.364;2023-05-20T02:55:16;94786.69;;;12.80;66.30
33191;BME280;19554;42.652;23.364;2023-05-20T02:57:41;94801.56;;;12.86;66.80
33191;BME280;19554;42.652;23.364;2023-05-20T03:00:07;94884.97;;;13.40;67.01
33191;BME280;19554;42.652;23.364;2023-05-20T03:02:37;94868.63;;;13.27;67.08
33191;BME280;19554;42.652;23.364;2023-05-20T03:05:02;94888.06;;;13.33;66.37
33191;BME280;19554;42.652;23.364;2023-05-20T03:07:29;94838.00;;;13.01;66.70
33191;BME280;19554;42.652;23.364;2023-05-20T03:09:56;94880.72;;;13.25;66.75
33191;BME280;19554;42.652;23.364;2023-05-20T03:12:23;94899.88;;;13.32;66.58
33191;BME280;19554;42.652;23.364;2023-05-20T03:14:50;94898.50;;;13.35;66.89
33191;BME280;19554;42.652;23.364;2023-05-20T03:17:19;94901.69;;;13.37;66.50
33191;BME280;19554;42.652;23.364;2023-05-20T03:19:45;94903.94;;;13.43;67.36
33191;BME280;19554;42.652;23.364;2023-05-20T03:22:10;94903.94;;;13.43;66.62
33191;BME280;19554;42.652;23.364;2023-05-20T03:24:36;94907.94;;;13.46;67.01
33191;BME280;19554;42.652;23.364;2023-05-20T03:27:01;94823.09;;;12.95;67.88
33191;BME280;19554;42.652;23.364;2023-05-20T03:29:27;94827.47;;;13.04;66.79
33191;BME280;19554;42.652;23.364;2023-05-20T03:31:52;94908.31;;;13.67;67.34
33191;BME280;19554;42.652;23.364;2023-05-20T03:34:17;94877.53;;;13.64;66.42
33191;BME280;19554;42.652;23.364;2023-05-20T03:36:43;94855.91;;;13.61;65.55
33191;BME280;19554;42.652;23.364;2023-05-20T03:39:08;94899.41;;;14.08;64.03
33191;BME280;19554;42.652;23.364;2023-05-20T03:41:34;94915.34;;;14.40;64.09
33191;BME280;19554;42.652;23.364;2023-05-20T03:43:59;94902.19;;;14.53;63.44
33191;BME280;19554;42.652;23.364;2023-05-20T03:46:24;94917.56;;;14.83;61.89
33191;BME280;19554;42.652;23.364;2023-05-20T03:48:50;94887.53;;;14.81;62.28
33191;BME280;19554;42.652;23.364;2023-05-20T03:51:15;94904.09;;;15.06;60.61
33191;BME280;19554;42.652;23.364;2023-05-20T03:53:40;94888.81;;;15.15;60.58
33191;BME280;19554;42.652;23.364;2023-05-20T03:56:06;94921.09;;;15.55;59.31
33191;BME280;19554;42.652;23.364;2023-05-20T03:58:31;94927.41;;;15.81;58.49
33191;BME280;19554;42.652;23.364;2023-05-20T04:00:57;94891.91;;;15.79;57.80
33191;BME280;19554;42.652;23.364;2023-05-20T04:03:22;94927.31;;;16.21;57.44
33191;BME280;19554;42.652;23.364;2023-05-20T04:05:48;94859.31;;;15.90;57.29
33191;BME280;19554;42.652;23.364;2023-05-20T04:08:14;94931.78;;;16.52;57.11
33191;BME280;19554;42.652;23.364;2023-05-20T04:10:40;94928.28;;;16.60;56.17
33191;BME280;19554;42.652;23.364;2023-05-20T04:13:07;94939.22;;;16.64;56.21
33191;BME280;19554;42.652;23.364;2023-05-20T04:15:34;94896.75;;;16.43;55.92
33191;BME280;19554;42.652;23.364;2023-05-20T04:18:01;94937.81;;;16.84;56.10
33191;BME280;19554;42.652;23.364;2023-05-20T04:20:26;94943.19;;;17.01;55.76
33191;BME280;19554;42.652;23.364;2023-05-20T04:22:52;94935.41;;;17.17;56.09
33191;BME280;19554;42.652;23.364;2023-05-20T04:25:18;94937.09;;;17.39;55.63
33191;BME280;19554;42.652;23.364;2023-05-20T04:27:44;94930.06;;;17.46;55.27
33191;BME280;19554;42.652;23.364;2023-05-20T04:30:10;94931.16;;;17.54;55.45
33191;BME280;19554;42.652;23.364;2023-05-20T04:32:36;94911.66;;;17.48;55.64
33191;BME280;19554;42.652;23.364;2023-05-20T04:35:01;94919.88;;;17.61;55.58
33191;BME280;19554;42.652;23.364;2023-05-20T04:37:27;94934.16;;;17.61;55.98
33191;BME280;19554;42.652;23.364;2023-05-20T04:39:53;94933.63;;;17.76;55.69
33191;BME280;19554;42.652;23.364;2023-05-20T04:42:19;94923.38;;;17.61;55.81
33191;BME280;19554;42.652;23.364;2023-05-20T04:44:46;94944.00;;;17.57;55.87
33191;BME280;19554;42.652;23.364;2023-05-20T04:47:13;94927.28;;;17.25;56.09
33191;BME280;19554;42.652;23.364;2023-05-20T04:49:38;94933.94;;;17.19;56.83
33191;BME280;19554;42.652;23.364;2023-05-20T04:52:04;94952.84;;;17.19;56.77
33191;BME280;19554;42.652;23.364;2023-05-20T04:54:31;94949.44;;;17.40;56.74
33191;BME280;19554;42.652;23.364;2023-05-20T04:56:57;94944.31;;;17.64;56.13
33191;BME280;19554;42.652;23.364;2023-05-20T04:59:23;94949.75;;;17.47;56.27
33191;BME280;19554;42.652;23.364;2023-05-20T05:01:48;94936.38;;;17.59;56.41
33191;BME280;19554;42.652;23.364;2023-05-20T05:04:13;94935.84;;;17.74;55.76
33191;BME280;19554;42.652;23.364;2023-05-20T05:06:39;94950.22;;;17.96;56.20
33191;BME280;19554;42.652;23.364;2023-05-20T05:09:05;94949.81;;;18.36;54.44
33191;BME280;19554;42.652;23.364;2023-05-20T05:11:30;94956.16;;;18.40;54.41
33191;BME280;19554;42.652;23.364;2023-05-20T05:13:56;94941.78;;;18.69;53.30
33191;BME280;19554;42.652;23.364;2023-05-20T05:16:21;94945.44;;;18.73;53.51
33191;BME280;19554;42.652;23.364;2023-05-20T05:18:47;94943.44;;;19.03;52.24
33191;BME280;19554;42.652;23.364;2023-05-20T05:21:13;94938.56;;;19.30;51.45
33191;BME280;19554;42.652;23.364;2023-05-20T05:23:38;94945.72;;;19.47;51.38
33191;BME280;19554;42.652;23.364;2023-05-20T05:26:03;94919.31;;;18.98;52.07
33191;BME280;19554;42.652;23.364;2023-05-20T05:28:29;94911.88;;;19.07;52.81
33191;BME280;19554;42.652;23.364;2023-05-20T05:30:54;94934.81;;;19.68;51.66
33191;BME280;19554;42.652;23.364;2023-05-20T05:33:21;94925.59;;;19.93;51.43
33191;BME280;19554;42.652;23.364;2023-05-20T05:35:46;94934.38;;;19.78;52.56
33191;BME280;19554;42.652;23.364;2023-05-20T05:38:12;94918.34;;;20.09;52.06
33191;BME280;19554;42.652;23.364;2023-05-20T05:40:37;94916.72;;;20.33;51.31
33191;BME280;19554;42.652;23.364;2023-05-20T05:43:03;94921.91;;;20.50;50.97
33191;BME280;19554;42.652;23.364;2023-05-20T05:45:28;94838.84;;;20.18;50.63
33191;BME280;19554;42.652;23.364;2023-05-20T05:47:54;94920.28;;;20.74;50.99
33191;BME280;19554;42.652;23.364;2023-05-20T05:50:19;94932.28;;;21.01;50.27
33191;BME280;19554;42.652;23.364;2023-05-20T05:52:44;94927.91;;;20.96;50.19
33191;BME280;19554;42.652;23.364;2023-05-20T05:55:11;94922.56;;;20.72;50.26
33191;BME280;19554;42.652;23.364;2023-05-20T05:57:36;94925.41;;;20.91;49.01
33191;BME280;19554;42.652;23.364;2023-05-20T06:00:02;94925.50;;;20.95;49.26
33191;BME280;19554;42.652;23.364;2023-05-20T06:02:28;94860.47;;;20.42;49.00
33191;BME280;19554;42.652;23.364;2023-05-20T06:04:54;94922.06;;;20.82;48.81
33191;BME280;19554;42.652;23.364;2023-05-20T06:07:19;94920.47;;;20.81;48.47
33191;BME280;19554;42.652;23.364;2023-05-20T06:09:44;94915.53;;;20.99;49.45
33191;BME280;19554;42.652;23.364;2023-05-20T06:12:10;94911.91;;;21.23;47.78
33191;BME280;19554;42.652;23.364;2023-05-20T06:14:35;94912.22;;;21.34;47.96
33191;BME280;19554;42.652;23.364;2023-05-20T06:17:01;94907.59;;;21.50;46.82
33191;BME280;19554;42.652;23.364;2023-05-20T06:19:27;94909.97;;;21.51;47.49
33191;BME280;19554;42.652;23.364;2023-05-20T06:21:52;94910.69;;;21.80;45.62
33191;BME280;19554;42.652;23.364;2023-05-20T06:24:18;94877.59;;;21.94;44.57
33191;BME280;19554;42.652;23.364;2023-05-20T06:26:43;94868.97;;;21.88;45.21
33191;BME280;19554;42.652;23.364;2023-05-20T06:29:10;94892.47;;;22.32;44.66
33191;BME280;19554;42.652;23.364;2023-05-20T06:31:35;94906.63;;;22.57;43.06
33191;BME280;19554;42.652;23.364;2023-05-20T06:34:01;94903.47;;;22.74;42.21
33191;BME280;19554;42.652;23.364;2023-05-20T06:36:26;94838.00;;;22.28;42.12
33191;BME280;19554;42.652;23.364;2023-05-20T06:38:52;94893.81;;;22.57;42.42
33191;BME280;19554;42.652;23.364;2023-05-20T06:41:18;94888.00;;;22.39;41.69
33191;BME280;19554;42.652;23.364;2023-05-20T06:43:43;94891.06;;;22.38;41.18
33191;BME280;19554;42.652;23.364;2023-05-20T06:46:08;94887.53;;;22.02;40.75
33191;BME280;19554;42.652;23.364;2023-05-20T06:48:34;94881.16;;;22.14;41.09
33191;BME280;19554;42.652;23.364;2023-05-20T06:50:59;94886.09;;;22.24;40.93
33191;BME280;19554;42.652;23.364;2023-05-20T06:53:25;94884.38;;;22.35;42.00
33191;BME280;19554;42.652;23.364;2023-05-20T06:55:52;94852.47;;;21.81;41.36
33191;BME280;19554;42.652;23.364;2023-05-20T06:58:19;94890.75;;;22.08;41.37
33191;BME280;19554;42.652;23.364;2023-05-20T07:00:45;94825.94;;;21.74;41.77
33191;BME280;19554;42.652;23.364;2023-05-20T07:03:11;94895.72;;;22.37;41.16
33191;BME280;19554;42.652;23.364;2023-05-20T07:05:36;94898.28;;;22.14;41.29
33191;BME280;19554;42.652;23.364;2023-05-20T07:08:02;94884.19;;;22.09;40.52
33191;BME280;19554;42.652;23.364;2023-05-20T07:10:28;94891.97;;;21.94;41.96
33191;BME280;19554;42.652;23.364;2023-05-20T07:12:53;94883.94;;;21.82;42.07
33191;BME280;19554;42.652;23.364;2023-05-20T07:15:19;94822.16;;;21.63;41.87
33191;BME280;19554;42.652;23.364;2023-05-20T07:17:44;94883.50;;;21.80;41.08
33191;BME280;19554;42.652;23.364;2023-05-20T07:20:10;94857.84;;;21.62;41.05
33191;BME280;19554;42.652;23.364;2023-05-20T07:22:35;94880.25;;;21.90;41.19
33191;BME280;19554;42.652;23.364;2023-05-20T07:25:01;94879.69;;;22.00;41.40
33191;BME280;19554;42.652;23.364;2023-05-20T07:27:26;94813.88;;;21.91;39.88
33191;BME280;19554;42.652;23.364;2023-05-20T07:29:52;94874.25;;;22.52;38.94
33191;BME280;19554;42.652;23.364;2023-05-20T07:32:17;94881.09;;;22.45;38.47
33191;BME280;19554;42.652;23.364;2023-05-20T07:34:42;94870.06;;;22.38;39.09
33191;BME280;19554;42.652;23.364;2023-05-20T07:37:08;94874.84;;;22.61;38.16
33191;BME280;19554;42.652;23.364;2023-05-20T07:39:34;94877.31;;;22.89;38.24
33191;BME280;19554;42.652;23.364;2023-05-20T07:41:59;94872.19;;;23.03;38.82
33191;BME280;19554;42.652;23.364;2023-05-20T07:44:25;94878.31;;;23.20;38.05
33191;BME280;19554;42.652;23.364;2023-05-20T07:46:50;94873.69;;;23.01;38.16
33191;BME280;19554;42.652;23.364;2023-05-20T07:49:16;94883.00;;;23.00;38.53
33191;BME280;19554;42.652;23.364;2023-05-20T07:51:41;94882.34;;;22.67;39.28
33191;BME280;19554;42.652;23.364;2023-05-20T07:54:07;94873.41;;;22.67;39.42
33191;BME280;19554;42.652;23.364;2023-05-20T07:56:32;94825.09;;;22.06;39.90
33191;BME280;19554;42.652;23.364;2023-05-20T07:58:59;94877.66;;;22.29;40.53
33191;BME280;19554;42.652;23.364;2023-05-20T08:01:25;94852.41;;;22.13;40.38
33191;BME280;19554;42.652;23.364;2023-05-20T08:03:51;94882.69;;;22.46;39.52
33191;BME280;19554;42.652;23.364;2023-05-20T08:06:17;94872.22;;;22.29;38.96
33191;BME280;19554;42.652;23.364;2023-05-20T08:08:45;94873.47;;;22.00;39.57
33191;BME280;19554;42.652;23.364;2023-05-20T08:11:11;94858.78;;;21.85;39.83
33191;BME280;19554;42.652;23.364;2023-05-20T08:13:36;94867.34;;;22.19;39.03
33191;BME280;19554;42.652;23.364;2023-05-20T08:16:02;94861.28;;;22.10;39.99
33191;BME280;19554;42.652;23.364;2023-05-20T08:18:28;94860.63;;;22.32;39.89
33191;BME280;19554;42.652;23.364;2023-05-20T08:20:54;94843.03;;;22.26;39.39
33191;BME280;19554;42.652;23.364;2023-05-20T08:23:19;94869.84;;;22.12;39.68
33191;BME280;19554;42.652;23.364;2023-05-20T08:25:45;94853.94;;;21.94;40.70
33191;BME280;19554;42.652;23.364;2023-05-20T08:28:12;94864.25;;;22.05;41.16
33191;BME280;19554;42.652;23.364;2023-05-20T08:30:37;94867.66;;;21.82;40.85
33191;BME280;19554;42.652;23.364;2023-05-20T08:33:03;94866.00;;;21.62;40.79
33191;BME280;19554;42.652;23.364;2023-05-20T08:35:28;94861.25;;;21.59;40.25
33191;BME280;19554;42.652;23.364;2023-05-20T08:37:54;94854.97;;;21.55;39.64
33191;BME280;19554;42.652;23.364;2023-05-20T08:40:20;94862.63;;;21.84;40.25
33191;BME280;19554;42.652;23.364;2023-05-20T08:42:47;94860.03;;;21.72;40.62
33191;BME280;19554;42.652;23.364;2023-05-20T08:45:16;94853.97;;;21.79;41.22
33191;BME280;19554;42.652;23.364;2023-05-20T08:47:41;94829.59;;;21.82;41.03
33191;BME280;19554;42.652;23.364;2023-05-20T08:50:08;94831.22;;;22.03;41.25
33191;BME280;19554;42.652;23.364;2023-05-20T08:52:36;94864.97;;;22.01;41.40
33191;BME280;19554;42.652;23.364;2023-05-20T08:55:03;94873.69;;;21.75;41.80
33191;BME280;19554;42.652;23.364;2023-05-20T08:57:32;94864.53;;;21.99;40.75
33191;BME280;19554;42.652;23.364;2023-05-20T08:59:58;94860.75;;;22.04;40.67
33191;BME280;19554;42.652;23.364;2023-05-20T09:02:24;94830.59;;;22.09;40.94
33191;BME280;19554;42.652;23.364;2023-05-20T09:04:50;94787.38;;;22.04;40.92
33191;BME280;19554;42.652;23.364;2023-05-20T09:07:28;94848.25;;;22.35;40.75
33191;BME280;19554;42.652;23.364;2023-05-20T09:09:53;94856.88;;;21.70;41.08
33191;BME280;19554;42.652;23.364;2023-05-20T09:12:20;94838.28;;;21.72;40.99
33191;BME280;19554;42.652;23.364;2023-05-20T09:14:45;94843.81;;;21.60;41.05
33191;BME280;19554;42.652;23.364;2023-05-20T09:17:11;94841.03;;;21.40;42.06
33191;BME280;19554;42.652;23.364;2023-05-20T09:19:37;94835.25;;;21.42;42.55
33191;BME280;19554;42.652;23.364;2023-05-20T09:22:02;94833.59;;;21.37;43.14
33191;BME280;19554;42.652;23.364;2023-05-20T09:24:29;94831.78;;;21.29;43.65
33191;BME280;19554;42.652;23.364;2023-05-20T09:26:54;94833.81;;;21.32;42.40
33191;BME280;19554;42.652;23.364;2023-05-20T09:29:20;94828.50;;;21.51;42.52
33191;BME280;19554;42.652;23.364;2023-05-20T09:31:47;94831.63;;;21.53;42.21
33191;BME280;19554;42.652;23.364;2023-05-20T09:34:13;94831.63;;;21.53;42.80
33191;BME280;19554;42.652;23.364;2023-05-20T09:36:41;94823.66;;;21.13;42.17
33191;BME280;19554;42.652;23.364;2023-05-20T09:39:10;94828.91;;;21.06;42.98
33191;BME280;19554;42.652;23.364;2023-05-20T09:41:38;94816.47;;;21.37;42.89
33191;BME280;19554;42.652;23.364;2023-05-20T09:44:04;94834.63;;;21.48;42.98
33191;BME280;19554;42.652;23.364;2023-05-20T09:46:32;94787.91;;;20.79;43.26
33191;BME280;19554;42.652;23.364;2023-05-20T09:48:58;94810.41;;;20.96;43.56
33191;BME280;19554;42.652;23.364;2023-05-20T09:51:24;94804.72;;;21.01;44.81
33191;BME280;19554;42.652;23.364;2023-05-20T09:53:50;94791.50;;;20.99;44.69
33191;BME280;19554;42.652;23.364;2023-05-20T09:56:19;94788.19;;;21.22;42.92
33191;BME280;19554;42.652;23.364;2023-05-20T09:58:46;94789.44;;;21.40;43.24
33191;BME280;19554;42.652;23.364;2023-05-20T10:01:11;94767.59;;;21.52;43.75
33191;BME280;19554;42.652;23.364;2023-05-20T10:03:37;94792.75;;;21.49;42.57
33191;BME280;19554;42.652;23.364;2023-05-20T10:08:51;94793.59;;;21.22;42.61
33191;BME280;19554;42.652;23.364;2023-05-20T10:14:27;94783.38;;;21.31;41.74
33191;BME280;19554;42.652;23.364;2023-05-20T10:17:09;94781.28;;;21.40;41.80
33191;BME280;19554;42.652;23.364;2023-05-20T10:19:37;94784.19;;;21.47;43.27
33191;BME280;19554;42.652;23.364;2023-05-20T10:22:05;94782.91;;;21.29;42.23
33191;BME280;19554;42.652;23.364;2023-05-20T10:24:35;94773.03;;;21.37;41.50
33191;BME280;19554;42.652;23.364;2023-05-20T10:27:03;94773.66;;;21.30;41.01
33191;BME280;19554;42.652;23.364;2023-05-20T10:29:40;94773.66;;;21.30;40.86
33191;BME280;19554;42.652;23.364;2023-05-20T10:32:06;94772.00;;;21.10;39.77
33191;BME280;19554;42.652;23.364;2023-05-20T10:34:46;94764.97;;;21.09;40.19
33191;BME280;19554;42.652;23.364;2023-05-20T10:38:09;94784.75;;;21.09;40.39
33191;BME280;19554;42.652;23.364;2023-05-20T10:42:29;94750.69;;;21.12;40.43
33191;BME280;19554;42.652;23.364;2023-05-20T10:44:55;94723.88;;;21.26;40.72
33191;BME280;19554;42.652;23.364;2023-05-20T10:47:20;94736.34;;;20.95;39.38
33191;BME280;19554;42.652;23.364;2023-05-20T10:49:46;94742.44;;;20.61;40.03
33191;BME280;19554;42.652;23.364;2023-05-20T10:52:16;94753.16;;;20.41;40.63
33191;BME280;19554;42.652;23.364;2023-05-20T10:54:59;94658.41;;;19.88;41.05
33191;BME280;19554;42.652;23.364;2023-05-20T10:57:26;94746.66;;;20.74;41.14
33191;BME280;19554;42.652;23.364;2023-05-20T10:59:51;94742.81;;;20.75;40.34
33191;BME280;19554;42.652;23.364;2023-05-20T11:02:18;94716.38;;;20.56;41.04
33191;BME280;19554;42.652;23.364;2023-05-20T11:04:44;94655.63;;;20.29;40.73
33191;BME280;19554;42.652;23.364;2023-05-20T11:07:10;94657.13;;;20.42;40.64
33191;BME280;19554;42.652;23.364;2023-05-20T11:09:35;94655.75;;;20.20;40.37
33191;BME280;19554;42.652;23.364;2023-05-20T11:12:01;94731.72;;;20.80;40.00
33191;BME280;19554;42.652;23.364;2023-05-20T11:14:28;94691.53;;;20.70;40.21
33191;BME280;19554;42.652;23.364;2023-05-20T11:16:57;94735.75;;;20.86;38.88
33191;BME280;19554;42.652;23.364;2023-05-20T11:19:23;94642.69;;;20.38;38.86
33191;BME280;19554;42.652;23.364;2023-05-20T11:21:50;94720.41;;;20.78;39.76
33191;BME280;19554;42.652;23.364;2023-05-20T11:24:25;94728.94;;;20.92;40.29
33191;BME280;19554;42.652;23.364;2023-05-20T11:26:53;94701.06;;;20.95;39.51
33191;BME280;19554;42.652;23.364;2023-05-20T11:29:18;94712.09;;;21.02;39.29
33191;BME280;19554;42.652;23.364;2023-05-20T11:31:47;94731.19;;;20.90;39.21
33191;BME280;19554;42.652;23.364;2023-05-20T11:34:13;94699.22;;;20.68;39.59
33191;BME280;19554;42.652;23.364;2023-05-20T11:36:42;94698.38;;;20.79;39.93
33191;BME280;19554;42.652;23.364;2023-05-20T11:39:09;94700.72;;;20.97;40.03
33191;BME280;19554;42.652;23.364;2023-05-20T11:41:35;94674.00;;;21.15;39.61
33191;BME280;19554;42.652;23.364;2023-05-20T11:44:01;94690.38;;;21.18;39.16
33191;BME280;19554;42.652;23.364;2023-05-20T11:46:27;94689.34;;;21.07;38.48
33191;BME280;19554;42.652;23.364;2023-05-20T11:48:56;94691.53;;;21.01;39.65
33191;BME280;19554;42.652;23.364;2023-05-20T11:51:28;94705.53;;;21.03;39.31
33191;BME280;19554;42.652;23.364;2023-05-20T11:54:05;94695.91;;;20.90;39.09
33191;BME280;19554;42.652;23.364;2023-05-20T11:56:34;94698.44;;;20.99;39.88
33191;BME280;19554;42.652;23.364;2023-05-20T11:59:04;94707.72;;;21.14;39.84
33191;BME280;19554;42.652;23.364;2023-05-20T12:01:37;94702.63;;;21.12;40.89
33191;BME280;19554;42.652;23.364;2023-05-20T12:04:08;94685.75;;;20.87;40.52
33191;BME280;19554;42.652;23.364;2023-05-20T12:06:34;94693.44;;;20.85;41.56
33191;BME280;19554;42.652;23.364;2023-05-20T12:09:02;94696.69;;;20.91;41.60
33191;BME280;19554;42.652;23.364;2023-05-20T12:11:40;94692.59;;;20.81;41.56
33191;BME280;19554;42.652;23.364;2023-05-20T12:14:06;94687.00;;;20.74;41.85
33191;BME280;19554;42.652;23.364;2023-05-20T12:16:33;94688.56;;;20.75;42.07
33191;BME280;19554;42.652;23.364;2023-05-20T12:18:59;94706.66;;;20.71;42.22
33191;BME280;19554;42.652;23.364;2023-05-20T12:21:25;94701.34;;;20.58;42.86
33191;BME280;19554;42.652;23.364;2023-05-20T12:23:50;94719.78;;;20.25;44.27
33191;BME280;19554;42.652;23.364;2023-05-20T12:26:24;94746.94;;;19.72;44.40
33191;BME280;19554;42.652;23.364;2023-05-20T12:28:51;94722.47;;;19.44;44.92
33191;BME280;19554;42.652;23.364;2023-05-20T12:31:17;94744.63;;;19.22;44.84
33191;BME280;19554;42.652;23.364;2023-05-20T12:33:42;94733.06;;;18.76;46.28
33191;BME280;19554;42.652;23.364;2023-05-20T12:36:08;94734.34;;;18.45;49.06
33191;BME280;19554;42.652;23.364;2023-05-20T12:38:33;94687.28;;;17.80;49.95
33191;BME280;19554;42.652;23.364;2023-05-20T12:40:59;94755.09;;;18.20;49.19
33191;BME280;19554;42.652;23.364;2023-05-20T12:43:24;94743.50;;;18.19;49.20
33191;BME280;19554;42.652;23.364;2023-05-20T12:45:50;94763.78;;;18.26;49.64
33191;BME280;19554;42.652;23.364;2023-05-20T12:48:16;94716.13;;;18.21;50.32
33191;BME280;19554;42.652;23.364;2023-05-20T12:50:42;94699.50;;;18.19;50.58
33191;BME280;19554;42.652;23.364;2023-05-20T12:53:07;94710.00;;;18.33;50.25
33191;BME280;19554;42.652;23.364;2023-05-20T12:55:33;94710.44;;;18.35;50.13